Time;durP1;ratioP1;P1;durP2;ratioP2;P2;SDS_P1;SDS_P2;PMS_P1;PMS_P2;Temp;Humidity;BMP_temperature;BMP_pressure;BME280_temperature;BME280_humidity;BME280_pressure;Samples;Min_cycle;Max_cycle;Signal;HPM_P1;HPM_P2
2023/05/20 00:02:34;;;;;;;26.30;18.60;;;;;;;11.20;86.66;99549.98;435387;1250;109468;-41
2023/05/20 00:12:38;;;;;;;33.60;21.20;;;;;;;11.20;86.55;99546.55;435189;1252;99852;-43
2023/05/20 00:22:41;;;;;;;29.10;19.30;;;;;;;11.16;86.56;99542.50;435374;1253;107160;-41
2023/05/20 00:32:45;;;;;;;25.70;18.00;;;;;;;11.10;86.55;99534.86;435225;1252;99384;-41
2023/05/20 00:42:49;;;;;;;24.20;17.70;;;;;;;11.12;86.51;99526.89;435226;1249;111831;-41
2023/05/20 01:02:57;;;;;;;27.70;15.90;;;;;;;11.21;86.47;99519.67;435273;1252;99221;-41
2023/05/20 01:13:04;;;;;;;24.60;16.80;;;;;;;11.18;86.63;99515.34;435342;1254;108746;-41
2023/05/20 01:23:08;;;;;;;19.20;12.60;;;;;;;11.11;86.66;99510.95;436119;1252;99260;-40
2023/05/20 01:33:14;;;;;;;18.30;12.90;;;;;;;11.09;87.08;99507.14;435261;1249;111916;-42
2023/05/20 01:43:18;;;;;;;15.30;12.20;;;;;;;11.11;86.96;99508.92;435210;1250;108179;-42
2023/05/20 01:53:21;;;;;;;15.40;11.60;;;;;;;11.16;87.01;99500.98;435447;1253;99237;-40
2023/05/20 02:03:34;;;;;;;15.10;11.00;;;;;;;11.18;87.02;99494.23;435281;1252;108193;-41
2023/05/20 02:13:38;;;;;;;15.30;11.00;;;;;;;11.21;87.02;99496.45;435268;1250;99255;-42
2023/05/20 02:23:42;;;;;;;11.80;10.10;;;;;;;11.25;87.12;99503.36;435273;1253;111939;-40
2023/05/20 02:33:45;;;;;;;17.60;11.40;;;;;;;11.29;87.15;99498.84;435257;1253;109983;-41
2023/05/20 02:43:49;;;;;;;17.00;11.80;;;;;;;11.31;87.05;99494.76;435218;1252;97984;-42
2023/05/20 02:53:53;;;;;;;17.70;11.60;;;;;;;11.33;87.07;99504.06;435129;1250;108312;-42
2023/05/20 03:03:57;;;;;;;13.60;11.10;;;;;;;11.35;87.12;99511.92;435150;1253;99279;-42
2023/05/20 03:14:02;;;;;;;13.80;10.40;;;;;;;11.37;87.27;99510.17;435312;1250;112016;-41
2023/05/20 03:24:06;;;;;;;17.70;11.80;;;;;;;11.41;87.35;99510.77;435254;1251;108382;-42
2023/05/20 03:34:10;;;;;;;18.00;11.40;;;;;;;11.43;87.20;99506.72;435288;1253;99241;-42
2023/05/20 03:44:13;;;;;;;12.80;11.00;;;;;;;11.44;87.34;99515.27;434877;1250;501954;-42
2023/05/20 03:54:17;;;;;;;16.80;12.00;;;;;;;11.44;87.38;99519.23;435293;1256;99591;-41
2023/05/20 04:04:25;;;;;;;17.50;12.00;;;;;;;11.45;87.47;99524.80;435330;1250;112781;-41
2023/05/20 04:14:28;;;;;;;16.80;11.70;;;;;;;11.48;87.61;99533.13;435200;1250;108645;-41
2023/05/20 04:24:32;;;;;;;14.00;11.30;;;;;;;11.55;87.70;99535.09;435321;1252;99222;-41
2023/05/20 04:34:36;;;;;;;16.70;12.70;;;;;;;11.66;87.82;99534.80;435268;1256;108123;-41
2023/05/20 04:44:39;;;;;;;17.40;12.90;;;;;;;11.83;87.81;99544.00;435277;1250;98018;-41
2023/05/20 04:55:05;;;;;;;21.30;14.10;;;;;;;11.88;87.66;99544.55;435404;1253;109986;-41
2023/05/20 05:05:09;;;;;;;19.90;14.40;;;;;;;11.91;87.69;99543.70;435291;1249;107569;-42
2023/05/20 05:15:12;;;;;;;25.20;16.60;;;;;;;12.01;87.86;99536.42;435534;1252;99240;-41
2023/05/20 05:25:16;;;;;;;23.50;18.80;;;;;;;12.08;88.06;99531.88;435233;1252;108679;-42
2023/05/20 05:35:24;;;;;;;23.30;17.50;;;;;;;12.16;88.17;99534.20;435374;1253;99719;-40
2023/05/20 05:45:31;;;;;;;23.40;17.60;;;;;;;12.29;88.34;99540.11;435295;1251;111997;-42
2023/05/20 05:55:35;;;;;;;23.10;17.60;;;;;;;12.35;88.47;99539.03;435262;1249;109018;-40
2023/05/20 06:05:39;;;;;;;27.50;18.40;;;;;;;12.55;88.49;99535.77;435318;1256;99086;-41
2023/05/20 06:25:47;;;;;;;27.70;20.60;;;;;;;12.78;88.58;99537.85;435346;1253;99227;-41
2023/05/20 06:45:55;;;;;;;25.90;16.70;;;;;;;13.16;88.61;99539.27;435171;1250;107351;-42
2023/05/20 06:55:58;;;;;;;23.30;17.30;;;;;;;13.28;88.66;99532.82;435289;1251;99211;-41
2023/05/20 07:06:02;;;;;;;28.70;17.40;;;;;;;13.49;88.31;99537.71;435251;1256;108012;-41
2023/05/20 07:16:09;;;;;;;25.00;20.10;;;;;;;13.73;87.96;99526.33;435231;1253;98859;-42
2023/05/20 07:26:13;;;;;;;25.60;18.30;;;;;;;13.79;87.60;99522.87;435430;1250;112873;-42
2023/05/20 07:36:18;;;;;;;25.70;18.40;;;;;;;13.88;87.34;99523.70;435217;1256;107210;-41
2023/05/20 07:46:21;;;;;;;33.20;23.00;;;;;;;14.04;87.17;99516.75;435400;1256;99178;-41
2023/05/20 07:56:28;;;;;;;28.50;20.40;;;;;;;14.09;86.82;99505.48;435231;1250;108081;-45
2023/05/20 08:06:32;;;;;;;24.90;18.20;;;;;;;14.40;86.29;99500.27;435180;1254;98811;-42
2023/05/20 08:26:43;;;;;;;27.20;18.90;;;;;;;15.15;85.17;99486.86;435380;1253;106301;-42
2023/05/20 08:36:46;;;;;;;25.20;18.40;;;;;;;15.42;84.19;99485.69;435159;1253;99227;-41
2023/05/20 08:46:51;;;;;;;30.90;20.60;;;;;;;15.68;83.55;99484.46;435498;1254;109032;-40
2023/05/20 08:56:55;;;;;;;30.20;20.20;;;;;;;15.81;83.13;99478.30;435419;1253;98020;-40
2023/05/20 09:17:11;;;;;;;26.30;19.90;;;;;;;16.15;81.61;99486.79;435326;1253;107479;-41
2023/05/20 09:27:15;;;;;;;26.80;20.00;;;;;;;16.21;80.88;99483.45;435381;1253;97978;-41
2023/05/20 09:37:21;;;;;;;27.70;19.20;;;;;;;16.39;80.79;99480.50;435228;1263;108305;-41
2023/05/20 09:47:26;;;;;;;27.80;20.60;;;;;;;16.61;80.39;99481.74;435286;1253;99250;-45
2023/05/20 09:57:31;;;;;;;23.80;19.60;;;;;;;16.92;80.36;99475.83;435473;1251;112257;-40
2023/05/20 10:08:07;;;;;;;23.00;17.10;;;;;;;17.29;79.27;99464.24;435193;1254;106938;-41
2023/05/20 10:18:18;;;;;;;22.80;17.90;;;;;;;17.67;78.57;99469.40;435433;1256;99231;-41
2023/05/20 10:38:32;;;;;;;21.40;17.10;;;;;;;18.07;77.26;99459.11;435537;1253;99263;-42
2023/05/20 10:48:35;;;;;;;22.80;19.00;;;;;;;18.69;76.21;99442.73;435181;1251;112827;-43
2023/05/20 10:58:43;;;;;;;28.10;19.70;;;;;;;18.81;75.57;99432.17;435383;1251;108604;-41
2023/05/20 11:08:47;;;;;;;24.60;18.60;;;;;;;19.19;74.49;99422.43;435437;1251;99250;-41
2023/05/20 11:18:50;;;;;;;24.70;19.60;;;;;;;19.49;73.19;99410.02;435104;1254;109256;-42
2023/05/20 11:28:55;;;;;;;25.70;20.90;;;;;;;19.28;72.02;99397.98;435362;1250;100115;-41
2023/05/20 11:39:04;;;;;;;24.60;17.90;;;;;;;19.02;71.34;99391.17;435270;1254;112459;-42
2023/05/20 11:49:08;;;;;;;29.50;19.80;;;;;;;19.38;72.30;99375.52;435266;1254;107827;-42
2023/05/20 11:59:14;;;;;;;29.70;18.70;;;;;;;19.43;71.84;99366.67;435074;1257;99275;-42
2023/05/20 12:09:22;;;;;;;24.00;19.60;;;;;;;19.62;71.73;99360.83;435313;1253;108141;-42
2023/05/20 12:19:27;;;;;;;21.10;16.70;;;;;;;19.79;70.33;99351.52;435366;1257;99218;-42
2023/05/20 12:29:31;;;;;;;21.10;17.20;;;;;;;20.02;70.23;99349.67;435258;1253;110804;-43
2023/05/20 12:39:35;;;;;;;25.80;18.50;;;;;;;20.22;69.76;99342.52;435411;1254;109231;-42
2023/05/20 12:49:39;;;;;;;22.80;19.10;;;;;;;20.46;69.17;99335.23;435327;1253;98013;-41
2023/05/20 12:59:42;;;;;;;21.10;17.40;;;;;;;20.70;69.08;99322.40;435299;1253;108056;-42
2023/05/20 13:09:46;;;;;;;23.90;19.60;;;;;;;20.95;68.97;99309.65;435322;1251;98946;-41
2023/05/20 13:29:53;;;;;;;26.80;18.70;;;;;;;21.25;67.10;99296.39;435291;1250;108179;-41
2023/05/20 13:39:57;;;;;;;25.10;19.60;;;;;;;21.48;66.71;99282.30;435453;1254;98065;-41
2023/05/20 13:50:07;;;;;;;24.20;19.20;;;;;;;21.70;66.77;99275.59;435564;1254;107194;-42
2023/05/20 14:00:12;;;;;;;24.10;17.20;;;;;;;21.69;65.25;99274.05;435476;1250;97982;-43
2023/05/20 14:10:16;;;;;;;23.60;17.60;;;;;;;21.75;64.56;99265.86;435324;1251;111110;-41
2023/05/20 14:20:23;;;;;;;18.50;16.60;;;;;;;21.91;64.15;99253.27;435305;1253;108195;-42
2023/05/20 14:30:31;;;;;;;26.80;15.80;;;;;;;22.03;63.28;99245.93;435411;1251;99250;-42
2023/05/20 14:40:35;;;;;;;23.20;16.10;;;;;;;22.11;63.03;99235.65;435379;1254;108301;-43
2023/05/20 14:50:39;;;;;;;24.50;16.60;;;;;;;22.21;62.26;99232.53;435405;1254;99253;-43
2023/05/20 15:00:42;;;;;;;18.00;15.10;;;;;;;22.22;61.70;99227.03;435351;1254;113007;-44
2023/05/20 15:10:49;;;;;;;20.30;13.40;;;;;;;22.31;60.42;99211.01;435416;1250;107571;-43
2023/05/20 15:32:54;;;;;;;15.40;12.90;;;;;;;22.40;57.59;99206.95;435316;1254;111080;-42
2023/05/20 15:53:06;;;;;;;17.20;12.00;;;;;;;22.43;57.51;99189.98;435350;1251;112396;-42
2023/05/20 16:13:14;;;;;;;19.20;11.20;;;;;;;22.23;58.11;99181.11;435603;1250;99253;-42
2023/05/20 16:23:21;;;;;;;17.20;14.60;;;;;;;22.13;58.78;99172.98;435338;1253;107480;-43
2023/05/20 16:33:30;;;;;;;15.50;12.70;;;;;;;21.95;58.64;99183.44;435305;1250;98000;-41
2023/05/20 16:43:34;;;;;;;16.20;13.40;;;;;;;21.66;58.97;99177.15;435484;1250;111336;-42
2023/05/20 16:53:38;;;;;;;15.40;13.90;;;;;;;21.40;59.35;99175.10;435471;1252;108114;-43
2023/05/20 17:03:42;;;;;;;18.80;14.40;;;;;;;21.28;60.20;99178.09;435287;1250;99278;-41
2023/05/20 17:13:45;;;;;;;17.20;13.50;;;;;;;21.19;60.76;99184.02;435303;1250;109073;-43
2023/05/20 17:23:49;;;;;;;18.00;16.00;;;;;;;21.04;61.57;99182.02;435487;1250;99589;-43
2023/05/20 17:33:53;;;;;;;19.10;16.10;;;;;;;20.90;62.20;99184.16;435436;1253;112028;-42
2023/05/20 17:43:57;;;;;;;18.40;15.00;;;;;;;20.75;62.64;99179.19;435508;1250;107965;-43
2023/05/20 17:54:05;;;;;;;17.80;15.20;;;;;;;20.52;63.24;99181.21;435514;1253;99060;-43
2023/05/20 18:04:12;;;;;;;27.80;17.80;;;;;;;20.32;63.99;99179.67;435189;1250;108215;-43
2023/05/20 18:24:19;;;;;;;19.20;16.50;;;;;;;19.83;65.34;99176.60;435369;1250;112503;-43
2023/05/20 18:44:31;;;;;;;32.70;18.70;;;;;;;19.17;66.42;99186.48;435295;1250;97958;-42
2023/05/20 18:54:35;;;;;;;25.40;19.00;;;;;;;18.87;67.09;99196.82;435298;1252;109372;-42
2023/05/20 19:04:39;;;;;;;22.30;17.80;;;;;;;18.64;67.70;99205.02;435350;1250;99253;-45
2023/05/20 19:24:47;;;;;;;19.40;17.40;;;;;;;18.38;68.81;99208.47;435402;1249;106700;-41
2023/05/20 19:34:51;;;;;;;16.20;13.00;;;;;;;18.24;68.52;99201.02;435212;1253;99227;-42
2023/05/20 19:44:55;;;;;;;15.90;13.50;;;;;;;18.11;68.49;99204.03;435332;1254;108424;-42
2023/05/20 19:54:59;;;;;;;14.10;12.70;;;;;;;17.86;68.55;99206.17;435370;1250;99259;-42
2023/05/20 20:05:06;;;;;;;15.90;11.20;;;;;;;17.59;68.54;99217.80;435515;1253;111162;-41
2023/05/20 20:15:11;;;;;;;13.90;9.50;;;;;;;17.32;68.22;99220.29;435451;1249;106600;-42
2023/05/20 20:25:16;;;;;;;11.00;9.30;;;;;;;17.10;68.08;99219.95;435317;1254;99336;-42
2023/05/20 20:45:24;;;;;;;17.00;10.80;;;;;;;16.56;68.23;99229.23;435314;1250;99204;-42
2023/05/20 21:05:34;;;;;;;11.70;10.50;;;;;;;16.20;68.66;99225.14;435359;1251;107503;-46
2023/05/20 21:15:38;;;;;;;14.40;10.50;;;;;;;16.08;69.01;99225.29;435220;1250;99250;-42
2023/05/20 21:25:42;;;;;;;13.80;11.60;;;;;;;15.89;69.23;99219.75;435359;1249;109011;-42
2023/05/20 21:35:45;;;;;;;17.30;11.60;;;;;;;15.76;69.37;99223.48;435142;1253;99225;-42
2023/05/20 21:45:49;;;;;;;15.10;10.20;;;;;;;15.71;69.56;99229.62;435413;1253;111587;-42
2023/05/20 21:55:53;;;;;;;13.70;11.20;;;;;;;15.63;69.96;99227.13;435326;1250;108498;-43
2023/05/20 22:05:57;;;;;;;13.70;11.90;;;;;;;15.45;70.09;99224.03;435297;1250;99218;-42
2023/05/20 22:16:04;;;;;;;14.40;10.30;;;;;;;15.26;70.29;99231.29;435292;1250;108209;-43
2023/05/20 22:26:08;;;;;;;14.70;11.20;;;;;;;15.10;70.56;99224.77;435290;1253;99244;-42
2023/05/20 22:36:12;;;;;;;12.20;10.50;;;;;;;15.01;71.01;99214.26;435230;1252;111332;-43
2023/05/20 22:46:16;;;;;;;16.20;14.40;;;;;;;14.92;71.31;99211.51;435343;1250;108016;-42
2023/05/20 22:56:20;;;;;;;14.70;13.20;;;;;;;14.76;71.69;99210.63;435479;1250;98014;-43
2023/05/20 23:06:25;;;;;;;15.80;12.00;;;;;;;14.64;71.82;99205.58;435358;1252;108246;-43
2023/05/20 23:16:30;;;;;;;16.90;12.10;;;;;;;14.56;72.09;99198.20;435119;1253;99250;-42
2023/05/20 23:26:36;;;;;;;15.50;12.50;;;;;;;14.52;72.43;99195.48;435151;1253;112194;-41
2023/05/20 23:36:44;;;;;;;16.40;13.60;;;;;;;14.38;72.69;99196.56;435424;1252;107930;-41
